Redding, CA

10:37 AM PST on January 28, 2015 (GMT -0800)
Deschutes Rd. & Redbud Ln. | Change Station
CLOSE
Current Station
Personal Weather Station
Location: Palo Cedro, CA
Elevation: 429 ft
Nearby Weather Stations

Elev 429 ft 40.52 °N, 122.23 °W | Updated 4 seconds ago

Clear
Clear
53.1 °F
Feels Like 53.1 °F
N
3.1
Wind Variable Wind from South
Gusts 3.8 mph

Today
High -- | Low -- °F
--% Chance of Precip.
Yesterday
High -- | Low -- °F
Precip. -- in
7:22 AM 5:22 PM
Waxing Gibbous, 67% visible
Pressure 30.27 in
Visibility 10.0 miles
Clouds Clear
Dew Point 48 °F
Humidity 83%
Rainfall 0.00 in
Snow Depth Not available.
UV 2 out of 12
Pollen 4.70 out of 12
Air Quality Not available.
Flu Activity Not available.
METAR KRDD 281753Z 00000KT 10SM CLR 11/08 A3027 RMK AO2 SLP250 T01110078 10111 20033 58004

More Conditions Fewer Conditions

Pressure 30.27 in
Visibility 10.0 miles
Clouds Clear
Dew Point 48 °F
Humidity 83%
Rainfall 0.00 in
Snow Depth Not available.
UV 2 out of 12
Pollen 4.70 out of 12
Air Quality Not available.
Flu Activity Not available.
METAR KRDD 281753Z 00000KT 10SM CLR 11/08 A3027 RMK AO2 SLP250 T01110078 10111 20033 58004

More Conditions Fewer Conditions

10-Day Weather Forecast

Almanac

Astronomy

Jan. 28, 2015 Rise Set
Actual Time
Civil Twilight
Nautical Twilight
Astronomical Twilight
Moon
Length of Visible Light
Length of Day
Tomorrow will be .
, % of the Moon is Illuminated

Today's Extremes

State Highs State Lows

Community

WunderPhotos

Upload Photos

1,791,241 photos uploaded!

WunderBlogs® & News

Nearby

Air Quality

  Air Quality AQ Index Pollutant
Not available.

Snow Depth

Station Depth Elevation

Earthquake Activity

City Distance Mag. Time & Date
Minimum magnitude displayed is 2.5.

Coastal Water Temperatures

Place Temperature

Nearby Weather Stations